sensor_id;sensor_type;location;lat;lon;timestamp;temperature;humidity
10336;DHT22;5213;53.548;9.930;2023-12-20T00:02:17;4.70;99.90
10336;DHT22;5213;53.548;9.930;2023-12-20T00:04:43;4.80;99.90
10336;DHT22;5213;53.548;9.930;2023-12-20T00:07:08;4.70;99.90
10336;DHT22;5213;53.548;9.930;2023-12-20T00:09:34;4.70;99.90
10336;DHT22;5213;53.548;9.930;2023-12-20T00:11:59;4.70;99.90
10336;DHT22;5213;53.548;9.930;2023-12-20T00:14:25;4.70;99.90
10336;DHT22;5213;53.548;9.930;2023-12-20T00:16:51;4.60;99.90
10336;DHT22;5213;53.548;9.930;2023-12-20T00:19:16;4.60;99.90
10336;DHT22;5213;53.548;9.930;2023-12-20T00:21:42;4.60;99.90
10336;DHT22;5213;53.548;9.930;2023-12-20T00:24:08;4.60;99.90
10336;DHT22;5213;53.548;9.930;2023-12-20T00:26:33;4.80;99.90
10336;DHT22;5213;53.548;9.930;2023-12-20T00:28:59;4.90;99.90
10336;DHT22;5213;53.548;9.930;2023-12-20T00:31:25;5.00;99.90
10336;DHT22;5213;53.548;9.930;2023-12-20T00:33:50;5.00;99.90
10336;DHT22;5213;53.548;9.930;2023-12-20T00:36:16;5.00;99.90
10336;DHT22;5213;53.548;9.930;2023-12-20T00:38:42;4.90;99.90
10336;DHT22;5213;53.548;9.930;2023-12-20T00:41:07;4.90;99.90
10336;DHT22;5213;53.548;9.930;2023-12-20T00:43:33;4.90;99.90
10336;DHT22;5213;53.548;9.930;2023-12-20T00:45:58;5.00;99.90
10336;DHT22;5213;53.548;9.930;2023-12-20T00:48:25;4.90;99.90
10336;DHT22;5213;53.548;9.930;2023-12-20T00:50:52;5.10;99.90
10336;DHT22;5213;53.548;9.930;2023-12-20T00:53:18;5.10;99.90
10336;DHT22;5213;53.548;9.930;2023-12-20T00:55:44;5.20;99.90
10336;DHT22;5213;53.548;9.930;2023-12-20T00:58:10;5.10;99.90
10336;DHT22;5213;53.548;9.930;2023-12-20T01:00:36;5.10;99.90
10336;DHT22;5213;53.548;9.930;2023-12-20T01:03:01;5.00;99.90
10336;DHT22;5213;53.548;9.930;2023-12-20T01:05:27;4.90;99.90
10336;DHT22;5213;53.548;9.930;2023-12-20T01:07:52;4.80;99.90
10336;DHT22;5213;53.548;9.930;2023-12-20T01:10:18;4.70;99.90
10336;DHT22;5213;53.548;9.930;2023-12-20T01:12:44;4.60;99.90
10336;DHT22;5213;53.548;9.930;2023-12-20T01:15:10;4.60;99.90
10336;DHT22;5213;53.548;9.930;2023-12-20T01:17:35;4.60;99.90
10336;DHT22;5213;53.548;9.930;2023-12-20T01:20:01;4.60;99.90
10336;DHT22;5213;53.548;9.930;2023-12-20T01:22:27;4.50;99.90
10336;DHT22;5213;53.548;9.930;2023-12-20T01:24:52;4.50;99.90
10336;DHT22;5213;53.548;9.930;2023-12-20T01:27:18;4.40;99.90
10336;DHT22;5213;53.548;9.930;2023-12-20T01:29:44;4.50;99.90
10336;DHT22;5213;53.548;9.930;2023-12-20T01:32:09;4.40;99.90
10336;DHT22;5213;53.548;9.930;2023-12-20T01:34:35;4.40;99.90
10336;DHT22;5213;53.548;9.930;2023-12-20T01:37:01;4.40;99.90
10336;DHT22;5213;53.548;9.930;2023-12-20T01:39:27;4.40;99.90
10336;DHT22;5213;53.548;9.930;2023-12-20T01:41:53;4.30;99.90
10336;DHT22;5213;53.548;9.930;2023-12-20T01:44:19;4.30;99.90
10336;DHT22;5213;53.548;9.930;2023-12-20T01:46:45;4.30;99.90
10336;DHT22;5213;53.548;9.930;2023-12-20T01:49:11;4.30;99.90
10336;DHT22;5213;53.548;9.930;2023-12-20T01:51:37;4.30;99.90
10336;DHT22;5213;53.548;9.930;2023-12-20T01:54:03;4.40;99.90
10336;DHT22;5213;53.548;9.930;2023-12-20T01:56:30;4.50;99.90
10336;DHT22;5213;53.548;9.930;2023-12-20T01:58:56;4.60;99.90
10336;DHT22;5213;53.548;9.930;2023-12-20T02:01:22;4.60;99.90
10336;DHT22;5213;53.548;9.930;2023-12-20T02:03:48;4.60;99.90
10336;DHT22;5213;53.548;9.930;2023-12-20T02:06:15;4.50;99.90
10336;DHT22;5213;53.548;9.930;2023-12-20T02:08:41;4.50;99.90
10336;DHT22;5213;53.548;9.930;2023-12-20T02:11:07;4.40;99.90
10336;DHT22;5213;53.548;9.930;2023-12-20T02:13:33;4.40;99.90
10336;DHT22;5213;53.548;9.930;2023-12-20T02:15:59;4.50;99.90
10336;DHT22;5213;53.548;9.930;2023-12-20T02:18:25;4.50;99.90
10336;DHT22;5213;53.548;9.930;2023-12-20T02:20:51;4.50;99.90
10336;DHT22;5213;53.548;9.930;2023-12-20T02:23:16;4.50;99.90
10336;DHT22;5213;53.548;9.930;2023-12-20T02:25:42;4.60;99.90
10336;DHT22;5213;53.548;9.930;2023-12-20T02:28:08;4.60;99.90
10336;DHT22;5213;53.548;9.930;2023-12-20T02:30:33;4.70;99.90
10336;DHT22;5213;53.548;9.930;2023-12-20T02:33:00;4.80;99.90
10336;DHT22;5213;53.548;9.930;2023-12-20T02:35:26;4.80;99.90
10336;DHT22;5213;53.548;9.930;2023-12-20T02:37:52;4.90;99.90
10336;DHT22;5213;53.548;9.930;2023-12-20T02:40:17;4.90;99.90
10336;DHT22;5213;53.548;9.930;2023-12-20T02:42:43;5.00;99.90
10336;DHT22;5213;53.548;9.930;2023-12-20T02:45:08;5.00;99.90
10336;DHT22;5213;53.548;9.930;2023-12-20T02:47:34;5.10;99.90
10336;DHT22;5213;53.548;9.930;2023-12-20T02:50:00;5.10;99.90
10336;DHT22;5213;53.548;9.930;2023-12-20T02:52:27;5.10;99.90
10336;DHT22;5213;53.548;9.930;2023-12-20T02:54:52;5.10;99.90
10336;DHT22;5213;53.548;9.930;2023-12-20T02:57:18;5.10;95.60
10336;DHT22;5213;53.548;9.930;2023-12-20T02:59:44;5.00;94.60
10336;DHT22;5213;53.548;9.930;2023-12-20T03:02:09;5.10;82.50
10336;DHT22;5213;53.548;9.930;2023-12-20T03:04:35;5.10;68.30
10336;DHT22;5213;53.548;9.930;2023-12-20T03:07:00;5.10;64.80
10336;DHT22;5213;53.548;9.930;2023-12-20T03:09:26;5.10;58.00
10336;DHT22;5213;53.548;9.930;2023-12-20T03:11:52;5.10;42.50
10336;DHT22;5213;53.548;9.930;2023-12-20T03:14:17;5.00;30.50
10336;DHT22;5213;53.548;9.930;2023-12-20T03:16:47;5.00;38.40
10336;DHT22;5213;53.548;9.930;2023-12-20T03:19:15;5.00;28.60
10336;DHT22;5213;53.548;9.930;2023-12-20T03:21:41;5.00;30.00
10336;DHT22;5213;53.548;9.930;2023-12-20T03:24:07;5.10;25.60
10336;DHT22;5213;53.548;9.930;2023-12-20T03:26:32;5.10;3.90
10336;DHT22;5213;53.548;9.930;2023-12-20T03:28:58;5.10;1.00
10336;DHT22;5213;53.548;9.930;2023-12-20T03:31:23;5.10;1.00
10336;DHT22;5213;53.548;9.930;2023-12-20T03:33:49;5.00;1.00
10336;DHT22;5213;53.548;9.930;2023-12-20T03:36:16;5.20;1.00
10336;DHT22;5213;53.548;9.930;2023-12-20T03:38:42;5.20;1.00
10336;DHT22;5213;53.548;9.930;2023-12-20T03:41:07;5.20;1.00
10336;DHT22;5213;53.548;9.930;2023-12-20T03:43:33;5.30;1.00
10336;DHT22;5213;53.548;9.930;2023-12-20T03:45:58;5.30;1.00
10336;DHT22;5213;53.548;9.930;2023-12-20T03:48:25;5.20;1.00
10336;DHT22;5213;53.548;9.930;2023-12-20T03:50:50;5.40;1.00
10336;DHT22;5213;53.548;9.930;2023-12-20T03:53:16;5.40;1.00
10336;DHT22;5213;53.548;9.930;2023-12-20T03:55:42;5.40;1.00
10336;DHT22;5213;53.548;9.930;2023-12-20T03:58:07;5.50;1.00
10336;DHT22;5213;53.548;9.930;2023-12-20T04:00:33;5.50;1.00
10336;DHT22;5213;53.548;9.930;2023-12-20T04:02:58;5.50;1.00
10336;DHT22;5213;53.548;9.930;2023-12-20T04:05:24;5.60;1.00
10336;DHT22;5213;53.548;9.930;2023-12-20T04:07:49;5.50;1.00
10336;DHT22;5213;53.548;9.930;2023-12-20T04:10:16;5.50;1.00
10336;DHT22;5213;53.548;9.930;2023-12-20T04:12:41;5.50;1.00
10336;DHT22;5213;53.548;9.930;2023-12-20T04:15:07;5.50;1.00
10336;DHT22;5213;53.548;9.930;2023-12-20T04:17:35;5.50;1.00
10336;DHT22;5213;53.548;9.930;2023-12-20T04:20:01;5.60;1.00
10336;DHT22;5213;53.548;9.930;2023-12-20T04:22:27;5.50;1.00
10336;DHT22;5213;53.548;9.930;2023-12-20T04:24:52;5.50;1.00
10336;DHT22;5213;53.548;9.930;2023-12-20T04:27:18;5.50;1.00
10336;DHT22;5213;53.548;9.930;2023-12-20T04:29:43;5.50;1.00
10336;DHT22;5213;53.548;9.930;2023-12-20T04:32:09;5.40;1.00
10336;DHT22;5213;53.548;9.930;2023-12-20T04:34:35;5.50;1.00
10336;DHT22;5213;53.548;9.930;2023-12-20T04:37:00;5.50;1.00
10336;DHT22;5213;53.548;9.930;2023-12-20T04:39:27;5.50;1.00
10336;DHT22;5213;53.548;9.930;2023-12-20T04:41:52;5.50;1.00
10336;DHT22;5213;53.548;9.930;2023-12-20T04:44:18;5.50;1.00
10336;DHT22;5213;53.548;9.930;2023-12-20T04:46:44;5.40;1.00
10336;DHT22;5213;53.548;9.930;2023-12-20T04:49:09;5.40;1.00
10336;DHT22;5213;53.548;9.930;2023-12-20T04:51:35;5.40;1.00
10336;DHT22;5213;53.548;9.930;2023-12-20T04:54:01;5.40;1.00
10336;DHT22;5213;53.548;9.930;2023-12-20T04:56:27;5.40;1.00
10336;DHT22;5213;53.548;9.930;2023-12-20T04:58:53;5.50;1.00
10336;DHT22;5213;53.548;9.930;2023-12-20T05:01:19;5.50;1.00
10336;DHT22;5213;53.548;9.930;2023-12-20T05:03:44;5.50;1.00
10336;DHT22;5213;53.548;9.930;2023-12-20T05:06:10;5.60;1.00
10336;DHT22;5213;53.548;9.930;2023-12-20T05:08:36;5.60;1.00
10336;DHT22;5213;53.548;9.930;2023-12-20T05:11:02;5.60;1.00
10336;DHT22;5213;53.548;9.930;2023-12-20T05:13:28;5.70;1.00
10336;DHT22;5213;53.548;9.930;2023-12-20T05:15:53;5.60;1.00
10336;DHT22;5213;53.548;9.930;2023-12-20T05:18:21;5.70;1.00
10336;DHT22;5213;53.548;9.930;2023-12-20T05:20:46;5.70;1.00
10336;DHT22;5213;53.548;9.930;2023-12-20T05:23:12;5.70;1.00
10336;DHT22;5213;53.548;9.930;2023-12-20T05:25:38;5.70;1.00
10336;DHT22;5213;53.548;9.930;2023-12-20T05:28:04;5.70;1.00
10336;DHT22;5213;53.548;9.930;2023-12-20T05:30:30;5.70;1.00
10336;DHT22;5213;53.548;9.930;2023-12-20T05:32:56;5.70;1.00
10336;DHT22;5213;53.548;9.930;2023-12-20T05:35:21;5.70;1.00
10336;DHT22;5213;53.548;9.930;2023-12-20T05:37:49;5.80;1.00
10336;DHT22;5213;53.548;9.930;2023-12-20T05:40:14;5.80;1.00
10336;DHT22;5213;53.548;9.930;2023-12-20T05:42:40;5.80;1.00
10336;DHT22;5213;53.548;9.930;2023-12-20T05:45:06;5.80;1.00
10336;DHT22;5213;53.548;9.930;2023-12-20T05:47:31;5.80;1.00
10336;DHT22;5213;53.548;9.930;2023-12-20T05:49:57;5.70;1.00
10336;DHT22;5213;53.548;9.930;2023-12-20T05:52:23;5.80;1.00
10336;DHT22;5213;53.548;9.930;2023-12-20T05:54:48;5.80;1.00
10336;DHT22;5213;53.548;9.930;2023-12-20T05:57:14;5.80;1.00
10336;DHT22;5213;53.548;9.930;2023-12-20T05:59:40;5.80;1.00
10336;DHT22;5213;53.548;9.930;2023-12-20T06:02:06;5.80;1.00
10336;DHT22;5213;53.548;9.930;2023-12-20T06:04:32;5.80;1.00
10336;DHT22;5213;53.548;9.930;2023-12-20T06:06:57;5.80;1.00
10336;DHT22;5213;53.548;9.930;2023-12-20T06:09:23;5.80;1.00
10336;DHT22;5213;53.548;9.930;2023-12-20T06:11:49;5.90;1.00
10336;DHT22;5213;53.548;9.930;2023-12-20T06:14:15;5.90;1.00
10336;DHT22;5213;53.548;9.930;2023-12-20T06:16:40;5.90;1.00
10336;DHT22;5213;53.548;9.930;2023-12-20T06:19:06;5.90;1.00
10336;DHT22;5213;53.548;9.930;2023-12-20T06:21:31;5.90;1.00
10336;DHT22;5213;53.548;9.930;2023-12-20T06:23:59;5.90;1.00
10336;DHT22;5213;53.548;9.930;2023-12-20T06:26:25;5.80;1.00
10336;DHT22;5213;53.548;9.930;2023-12-20T06:28:50;5.90;1.00
10336;DHT22;5213;53.548;9.930;2023-12-20T06:31:16;6.00;1.00
10336;DHT22;5213;53.548;9.930;2023-12-20T06:33:43;6.00;1.00
10336;DHT22;5213;53.548;9.930;2023-12-20T06:36:11;5.90;1.00
10336;DHT22;5213;53.548;9.930;2023-12-20T06:38:38;6.00;1.00
10336;DHT22;5213;53.548;9.930;2023-12-20T06:41:04;6.00;1.00
10336;DHT22;5213;53.548;9.930;2023-12-20T06:43:29;6.00;1.00
10336;DHT22;5213;53.548;9.930;2023-12-20T06:45:56;6.00;1.00
10336;DHT22;5213;53.548;9.930;2023-12-20T06:48:22;5.90;1.00
10336;DHT22;5213;53.548;9.930;2023-12-20T06:50:56;5.90;1.00
10336;DHT22;5213;53.548;9.930;2023-12-20T06:53:22;5.90;1.00
10336;DHT22;5213;53.548;9.930;2023-12-20T06:55:47;5.90;1.00
10336;DHT22;5213;53.548;9.930;2023-12-20T06:58:13;5.90;1.00
10336;DHT22;5213;53.548;9.930;2023-12-20T07:00:38;5.90;1.00
10336;DHT22;5213;53.548;9.930;2023-12-20T07:03:04;5.90;1.00
10336;DHT22;5213;53.548;9.930;2023-12-20T07:05:29;5.90;1.00
10336;DHT22;5213;53.548;9.930;2023-12-20T07:07:55;5.90;1.00
10336;DHT22;5213;53.548;9.930;2023-12-20T07:10:21;5.80;1.00
10336;DHT22;5213;53.548;9.930;2023-12-20T07:12:46;5.90;1.00
10336;DHT22;5213;53.548;9.930;2023-12-20T07:15:14;5.80;1.00
10336;DHT22;5213;53.548;9.930;2023-12-20T07:17:39;5.90;1.00
10336;DHT22;5213;53.548;9.930;2023-12-20T07:20:05;5.90;1.00
10336;DHT22;5213;53.548;9.930;2023-12-20T07:22:35;5.90;1.00
10336;DHT22;5213;53.548;9.930;2023-12-20T07:25:00;5.90;1.00
10336;DHT22;5213;53.548;9.930;2023-12-20T07:27:26;5.90;1.00
10336;DHT22;5213;53.548;9.930;2023-12-20T07:29:52;6.00;1.00
10336;DHT22;5213;53.548;9.930;2023-12-20T07:32:18;6.00;1.00
10336;DHT22;5213;53.548;9.930;2023-12-20T07:34:43;6.00;1.00
10336;DHT22;5213;53.548;9.930;2023-12-20T07:37:09;6.00;1.00
10336;DHT22;5213;53.548;9.930;2023-12-20T07:39:42;6.10;1.00
10336;DHT22;5213;53.548;9.930;2023-12-20T07:42:08;6.10;1.00
10336;DHT22;5213;53.548;9.930;2023-12-20T07:44:34;6.10;1.00
10336;DHT22;5213;53.548;9.930;2023-12-20T07:47:01;6.10;1.00
10336;DHT22;5213;53.548;9.930;2023-12-20T07:49:27;6.10;1.00
10336;DHT22;5213;53.548;9.930;2023-12-20T07:51:53;6.20;1.00
10336;DHT22;5213;53.548;9.930;2023-12-20T07:54:18;6.20;1.00
10336;DHT22;5213;53.548;9.930;2023-12-20T07:56:44;6.20;1.00
10336;DHT22;5213;53.548;9.930;2023-12-20T07:59:10;6.20;1.00
10336;DHT22;5213;53.548;9.930;2023-12-20T08:01:36;6.30;1.00
10336;DHT22;5213;53.548;9.930;2023-12-20T08:04:01;6.20;1.00
10336;DHT22;5213;53.548;9.930;2023-12-20T08:06:27;6.30;1.00
10336;DHT22;5213;53.548;9.930;2023-12-20T08:08:52;6.30;1.00
10336;DHT22;5213;53.548;9.930;2023-12-20T08:11:18;6.30;1.00
10336;DHT22;5213;53.548;9.930;2023-12-20T08:13:44;6.40;1.00
10336;DHT22;5213;53.548;9.930;2023-12-20T08:16:09;6.40;1.00
10336;DHT22;5213;53.548;9.930;2023-12-20T08:18:36;6.50;1.00
10336;DHT22;5213;53.548;9.930;2023-12-20T08:21:02;6.50;1.00
10336;DHT22;5213;53.548;9.930;2023-12-20T08:23:28;6.50;1.00
10336;DHT22;5213;53.548;9.930;2023-12-20T08:25:53;6.50;1.00
10336;DHT22;5213;53.548;9.930;2023-12-20T08:28:19;6.50;1.00
10336;DHT22;5213;53.548;9.930;2023-12-20T08:30:44;6.50;1.00
10336;DHT22;5213;53.548;9.930;2023-12-20T08:33:10;6.50;1.00
10336;DHT22;5213;53.548;9.930;2023-12-20T08:35:41;6.60;1.00
10336;DHT22;5213;53.548;9.930;2023-12-20T08:38:07;6.60;1.00
10336;DHT22;5213;53.548;9.930;2023-12-20T08:40:33;6.70;1.00
10336;DHT22;5213;53.548;9.930;2023-12-20T08:42:58;6.70;1.00
10336;DHT22;5213;53.548;9.930;2023-12-20T08:45:24;6.70;1.00
10336;DHT22;5213;53.548;9.930;2023-12-20T08:47:50;6.80;1.00
10336;DHT22;5213;53.548;9.930;2023-12-20T08:50:15;6.80;1.00
10336;DHT22;5213;53.548;9.930;2023-12-20T08:52:41;6.80;1.00
10336;DHT22;5213;53.548;9.930;2023-12-20T08:55:07;6.70;1.00
10336;DHT22;5213;53.548;9.930;2023-12-20T08:57:33;6.70;1.00
10336;DHT22;5213;53.548;9.930;2023-12-20T08:59:59;6.70;1.00
10336;DHT22;5213;53.548;9.930;2023-12-20T09:02:24;6.60;1.00
10336;DHT22;5213;53.548;9.930;2023-12-20T09:04:50;6.60;1.00
10336;DHT22;5213;53.548;9.930;2023-12-20T09:07:25;6.50;1.00
10336;DHT22;5213;53.548;9.930;2023-12-20T09:09:52;6.40;1.00
10336;DHT22;5213;53.548;9.930;2023-12-20T09:12:21;6.50;1.00
10336;DHT22;5213;53.548;9.930;2023-12-20T09:14:47;6.30;1.00
10336;DHT22;5213;53.548;9.930;2023-12-20T09:17:13;6.30;1.00
10336;DHT22;5213;53.548;9.930;2023-12-20T09:19:39;6.20;1.00
10336;DHT22;5213;53.548;9.930;2023-12-20T09:22:05;6.10;1.00
10336;DHT22;5213;53.548;9.930;2023-12-20T09:24:31;6.10;1.00
10336;DHT22;5213;53.548;9.930;2023-12-20T09:26:57;6.00;1.00
10336;DHT22;5213;53.548;9.930;2023-12-20T09:29:23;6.00;1.00
10336;DHT22;5213;53.548;9.930;2023-12-20T09:31:50;5.90;1.00
10336;DHT22;5213;53.548;9.930;2023-12-20T09:34:16;5.80;1.00
10336;DHT22;5213;53.548;9.930;2023-12-20T09:36:42;5.80;1.00
10336;DHT22;5213;53.548;9.930;2023-12-20T09:39:13;5.80;1.00
10336;DHT22;5213;53.548;9.930;2023-12-20T09:41:43;5.50;1.00
10336;DHT22;5213;53.548;9.930;2023-12-20T09:44:15;5.70;1.00
10336;DHT22;5213;53.548;9.930;2023-12-20T09:46:44;5.80;1.00
10336;DHT22;5213;53.548;9.930;2023-12-20T09:49:11;5.90;1.00
10336;DHT22;5213;53.548;9.930;2023-12-20T09:51:38;6.00;1.00
10336;DHT22;5213;53.548;9.930;2023-12-20T09:54:05;5.80;1.00
10336;DHT22;5213;53.548;9.930;2023-12-20T09:56:31;5.80;1.00
10336;DHT22;5213;53.548;9.930;2023-12-20T09:58:57;5.70;1.00
10336;DHT22;5213;53.548;9.930;2023-12-20T10:01:23;5.60;1.00
10336;DHT22;5213;53.548;9.930;2023-12-20T10:03:50;5.50;1.00
10336;DHT22;5213;53.548;9.930;2023-12-20T10:06:17;5.40;1.00
10336;DHT22;5213;53.548;9.930;2023-12-20T10:08:43;5.40;1.00
10336;DHT22;5213;53.548;9.930;2023-12-20T10:11:09;5.30;1.00
10336;DHT22;5213;53.548;9.930;2023-12-20T10:13:42;5.40;1.00
10336;DHT22;5213;53.548;9.930;2023-12-20T10:16:08;5.40;1.00
10336;DHT22;5213;53.548;9.930;2023-12-20T10:18:33;5.50;1.00
10336;DHT22;5213;53.548;9.930;2023-12-20T10:21:00;5.40;1.00
10336;DHT22;5213;53.548;9.930;2023-12-20T10:23:26;5.50;1.00
10336;DHT22;5213;53.548;9.930;2023-12-20T10:25:58;5.40;1.00
10336;DHT22;5213;53.548;9.930;2023-12-20T10:28:25;5.50;1.00
10336;DHT22;5213;53.548;9.930;2023-12-20T10:30:53;5.50;1.00
10336;DHT22;5213;53.548;9.930;2023-12-20T10:33:26;5.50;1.00
10336;DHT22;5213;53.548;9.930;2023-12-20T10:35:52;5.60;1.00
10336;DHT22;5213;53.548;9.930;2023-12-20T10:38:18;5.60;1.00
10336;DHT22;5213;53.548;9.930;2023-12-20T10:40:45;5.60;1.00
10336;DHT22;5213;53.548;9.930;2023-12-20T10:43:12;5.50;1.00
10336;DHT22;5213;53.548;9.930;2023-12-20T10:45:37;5.60;1.00
10336;DHT22;5213;53.548;9.930;2023-12-20T10:48:04;5.60;1.00
10336;DHT22;5213;53.548;9.930;2023-12-20T10:50:31;5.70;1.00
10336;DHT22;5213;53.548;9.930;2023-12-20T10:52:57;5.40;1.00
10336;DHT22;5213;53.548;9.930;2023-12-20T10:55:24;5.70;1.00
10336;DHT22;5213;53.548;9.930;2023-12-20T10:57:51;5.70;1.00
10336;DHT22;5213;53.548;9.930;2023-12-20T11:00:18;5.80;1.00
10336;DHT22;5213;53.548;9.930;2023-12-20T11:02:44;5.80;1.00
10336;DHT22;5213;53.548;9.930;2023-12-20T11:08:12;5.60;1.00
10336;DHT22;5213;53.548;9.930;2023-12-20T11:10:59;5.60;1.00
10336;DHT22;5213;53.548;9.930;2023-12-20T11:13:36;5.60;1.00
10336;DHT22;5213;53.548;9.930;2023-12-20T11:16:03;5.60;1.00
10336;DHT22;5213;53.548;9.930;2023-12-20T11:18:30;5.50;1.00
10336;DHT22;5213;53.548;9.930;2023-12-20T11:21:06;5.60;1.00
10336;DHT22;5213;53.548;9.930;2023-12-20T11:23:32;5.60;1.00
10336;DHT22;5213;53.548;9.930;2023-12-20T11:26:02;5.70;1.00
10336;DHT22;5213;53.548;9.930;2023-12-20T11:28:28;5.90;1.00
10336;DHT22;5213;53.548;9.930;2023-12-20T11:30:58;6.00;1.00
10336;DHT22;5213;53.548;9.930;2023-12-20T11:33:36;6.20;1.00
10336;DHT22;5213;53.548;9.930;2023-12-20T11:36:02;6.20;99.90
10336;DHT22;5213;53.548;9.930;2023-12-20T11:38:38;6.20;99.90
10336;DHT22;5213;53.548;9.930;2023-12-20T11:41:07;6.20;99.90
10336;DHT22;5213;53.548;9.930;2023-12-20T11:43:36;6.20;99.90
10336;DHT22;5213;53.548;9.930;2023-12-20T11:46:07;6.10;1.00
10336;DHT22;5213;53.548;9.930;2023-12-20T11:48:36;6.10;1.00
10336;DHT22;5213;53.548;9.930;2023-12-20T11:51:02;5.90;1.00
10336;DHT22;5213;53.548;9.930;2023-12-20T11:53:29;5.80;1.00
10336;DHT22;5213;53.548;9.930;2023-12-20T11:55:56;5.80;1.00
10336;DHT22;5213;53.548;9.930;2023-12-20T11:58:22;5.90;1.00
10336;DHT22;5213;53.548;9.930;2023-12-20T12:00:49;5.90;1.00
10336;DHT22;5213;53.548;9.930;2023-12-20T12:03:15;5.50;1.00
10336;DHT22;5213;53.548;9.930;2023-12-20T12:05:41;5.50;1.00
10336;DHT22;5213;53.548;9.930;2023-12-20T12:08:07;5.50;1.00
10336;DHT22;5213;53.548;9.930;2023-12-20T12:10:33;5.60;1.00
10336;DHT22;5213;53.548;9.930;2023-12-20T12:12:59;5.70;1.00
10336;DHT22;5213;53.548;9.930;2023-12-20T12:15:26;5.80;1.00
10336;DHT22;5213;53.548;9.930;2023-12-20T12:17:56;5.70;1.00
10336;DHT22;5213;53.548;9.930;2023-12-20T12:20:23;5.60;1.00
10336;DHT22;5213;53.548;9.930;2023-12-20T12:23:03;5.60;1.00
10336;DHT22;5213;53.548;9.930;2023-12-20T12:25:30;5.60;1.00
10336;DHT22;5213;53.548;9.930;2023-12-20T12:27:57;5.60;1.00
10336;DHT22;5213;53.548;9.930;2023-12-20T12:30:23;5.60;1.00
10336;DHT22;5213;53.548;9.930;2023-12-20T12:32:48;5.60;1.00
10336;DHT22;5213;53.548;9.930;2023-12-20T12:35:14;5.70;1.00
10336;DHT22;5213;53.548;9.930;2023-12-20T12:37:40;5.70;1.00
10336;DHT22;5213;53.548;9.930;2023-12-20T12:40:14;5.70;1.00
10336;DHT22;5213;53.548;9.930;2023-12-20T12:42:42;5.70;1.00
10336;DHT22;5213;53.548;9.930;2023-12-20T12:45:09;5.80;1.00
10336;DHT22;5213;53.548;9.930;2023-12-20T12:47:36;5.90;1.00
10336;DHT22;5213;53.548;9.930;2023-12-20T12:50:02;6.10;99.90
10336;DHT22;5213;53.548;9.930;2023-12-20T12:52:28;6.20;99.90
10336;DHT22;5213;53.548;9.930;2023-12-20T12:54:53;6.20;99.90
10336;DHT22;5213;53.548;9.930;2023-12-20T12:57:19;6.20;99.90
10336;DHT22;5213;53.548;9.930;2023-12-20T12:59:45;5.90;99.90
10336;DHT22;5213;53.548;9.930;2023-12-20T13:02:15;6.10;99.90
10336;DHT22;5213;53.548;9.930;2023-12-20T13:04:41;6.10;99.90
10336;DHT22;5213;53.548;9.930;2023-12-20T13:07:08;6.00;99.90
10336;DHT22;5213;53.548;9.930;2023-12-20T13:09:36;6.20;99.90
10336;DHT22;5213;53.548;9.930;2023-12-20T13:12:02;6.00;99.90
10336;DHT22;5213;53.548;9.930;2023-12-20T13:14:30;5.80;99.90
10336;DHT22;5213;53.548;9.930;2023-12-20T13:16:56;5.80;99.90
10336;DHT22;5213;53.548;9.930;2023-12-20T13:19:21;5.80;99.90
10336;DHT22;5213;53.548;9.930;2023-12-20T13:21:47;5.80;99.90
10336;DHT22;5213;53.548;9.930;2023-12-20T13:24:14;5.80;99.90
10336;DHT22;5213;53.548;9.930;2023-12-20T13:26:39;5.70;99.90
10336;DHT22;5213;53.548;9.930;2023-12-20T13:29:05;5.70;99.90
10336;DHT22;5213;53.548;9.930;2023-12-20T13:31:30;5.70;99.90
10336;DHT22;5213;53.548;9.930;2023-12-20T13:33:56;5.50;99.90
10336;DHT22;5213;53.548;9.930;2023-12-20T13:36:22;5.70;99.90
10336;DHT22;5213;53.548;9.930;2023-12-20T13:38:48;5.70;99.90
10336;DHT22;5213;53.548;9.930;2023-12-20T13:41:13;5.60;99.90
10336;DHT22;5213;53.548;9.930;2023-12-20T13:43:39;5.50;99.90
10336;DHT22;5213;53.548;9.930;2023-12-20T13:46:04;5.50;1.00
10336;DHT22;5213;53.548;9.930;2023-12-20T13:48:30;5.50;1.00
10336;DHT22;5213;53.548;9.930;2023-12-20T13:50:56;5.40;1.00
10336;DHT22;5213;53.548;9.930;2023-12-20T13:53:22;5.50;1.00
10336;DHT22;5213;53.548;9.930;2023-12-20T13:55:47;5.00;1.00
10336;DHT22;5213;53.548;9.930;2023-12-20T13:58:13;5.70;99.90
10336;DHT22;5213;53.548;9.930;2023-12-20T14:00:39;5.70;99.90
10336;DHT22;5213;53.548;9.930;2023-12-20T14:03:05;5.80;99.90
10336;DHT22;5213;53.548;9.930;2023-12-20T14:05:31;5.80;99.90
10336;DHT22;5213;53.548;9.930;2023-12-20T14:07:57;5.80;99.90
10336;DHT22;5213;53.548;9.930;2023-12-20T14:10:23;5.80;99.90
10336;DHT22;5213;53.548;9.930;2023-12-20T14:12:48;5.80;99.90
10336;DHT22;5213;53.548;9.930;2023-12-20T14:15:14;6.10;99.90
10336;DHT22;5213;53.548;9.930;2023-12-20T14:17:40;5.90;99.90
10336;DHT22;5213;53.548;9.930;2023-12-20T14:20:09;5.90;99.90
10336;DHT22;5213;53.548;9.930;2023-12-20T14:22:36;6.00;99.90
10336;DHT22;5213;53.548;9.930;2023-12-20T14:25:04;6.00;99.90
10336;DHT22;5213;53.548;9.930;2023-12-20T14:27:30;6.10;99.90
10336;DHT22;5213;53.548;9.930;2023-12-20T14:29:55;6.00;99.90
10336;DHT22;5213;53.548;9.930;2023-12-20T14:32:21;5.90;99.90
10336;DHT22;5213;53.548;9.930;2023-12-20T14:34:47;5.90;99.90
10336;DHT22;5213;53.548;9.930;2023-12-20T14:37:13;5.90;99.90
10336;DHT22;5213;53.548;9.930;2023-12-20T14:39:38;6.20;99.90
10336;DHT22;5213;53.548;9.930;2023-12-20T14:42:10;6.00;99.90
10336;DHT22;5213;53.548;9.930;2023-12-20T14:44:42;5.90;99.90
10336;DHT22;5213;53.548;9.930;2023-12-20T14:47:08;5.90;99.90
10336;DHT22;5213;53.548;9.930;2023-12-20T14:49:34;5.80;99.90
10336;DHT22;5213;53.548;9.930;2023-12-20T14:52:00;5.70;99.90
10336;DHT22;5213;53.548;9.930;2023-12-20T14:54:26;5.80;99.90
10336;DHT22;5213;53.548;9.930;2023-12-20T14:56:51;5.50;99.90
10336;DHT22;5213;53.548;9.930;2023-12-20T14:59:17;5.60;99.90
10336;DHT22;5213;53.548;9.930;2023-12-20T15:01:46;5.50;99.90
10336;DHT22;5213;53.548;9.930;2023-12-20T15:04:11;5.50;99.90
10336;DHT22;5213;53.548;9.930;2023-12-20T15:06:37;5.60;99.90
10336;DHT22;5213;53.548;9.930;2023-12-20T15:09:03;5.60;99.90
10336;DHT22;5213;53.548;9.930;2023-12-20T15:11:31;5.50;99.90
10336;DHT22;5213;53.548;9.930;2023-12-20T15:13:57;5.50;99.90
10336;DHT22;5213;53.548;9.930;2023-12-20T15:16:25;5.60;99.90
10336;DHT22;5213;53.548;9.930;2023-12-20T15:18:51;5.60;99.90
10336;DHT22;5213;53.548;9.930;2023-12-20T15:21:18;5.70;99.90
10336;DHT22;5213;53.548;9.930;2023-12-20T15:23:44;5.60;99.90
10336;DHT22;5213;53.548;9.930;2023-12-20T15:26:21;5.60;99.90
10336;DHT22;5213;53.548;9.930;2023-12-20T15:28:46;5.50;99.90
10336;DHT22;5213;53.548;9.930;2023-12-20T15:31:12;5.40;99.90
10336;DHT22;5213;53.548;9.930;2023-12-20T15:33:39;5.40;99.90
10336;DHT22;5213;53.548;9.930;2023-12-20T15:36:05;5.30;99.90
10336;DHT22;5213;53.548;9.930;2023-12-20T15:38:31;5.30;99.90
10336;DHT22;5213;53.548;9.930;2023-12-20T15:40:56;5.20;99.90
10336;DHT22;5213;53.548;9.930;2023-12-20T15:43:22;5.20;99.90
10336;DHT22;5213;53.548;9.930;2023-12-20T15:45:47;4.80;99.90
10336;DHT22;5213;53.548;9.930;2023-12-20T15:48:13;5.10;99.90
10336;DHT22;5213;53.548;9.930;2023-12-20T15:50:43;5.10;99.90
10336;DHT22;5213;53.548;9.930;2023-12-20T15:53:09;5.10;99.90
10336;DHT22;5213;53.548;9.930;2023-12-20T15:55:34;5.00;99.90
10336;DHT22;5213;53.548;9.930;2023-12-20T15:58:00;5.10;99.90
10336;DHT22;5213;53.548;9.930;2023-12-20T16:00:26;5.10;99.90
10336;DHT22;5213;53.548;9.930;2023-12-20T16:02:51;5.10;99.90
10336;DHT22;5213;53.548;9.930;2023-12-20T16:05:18;5.20;99.90
10336;DHT22;5213;53.548;9.930;2023-12-20T16:07:44;5.20;99.90
10336;DHT22;5213;53.548;9.930;2023-12-20T16:10:09;5.30;99.90